createdAt,value
2022-12-29T00:01:20.287Z,79.05
2022-12-29T00:06:43.537Z,78.43
2022-12-29T00:12:05.872Z,78.35
2022-12-29T00:17:27.689Z,78.20
2022-12-29T00:22:49.507Z,78.81
2022-12-29T00:28:11.574Z,78.16
2022-12-29T00:33:34.744Z,78.27
2022-12-29T00:39:01.724Z,78.31
2022-12-29T00:44:23.550Z,78.27
2022-12-29T00:49:45.431Z,78.08
2022-12-29T00:55:07.636Z,78.48
2022-12-29T01:00:29.496Z,78.10
2022-12-29T01:05:51.410Z,78.28
2022-12-29T01:11:13.907Z,78.39
2022-12-29T01:16:35.934Z,78.04
2022-12-29T01:21:57.868Z,78.62
2022-12-29T01:27:19.709Z,78.70
2022-12-29T01:32:41.497Z,78.48
2022-12-29T01:38:03.653Z,78.34
2022-12-29T01:43:45.575Z,77.82
2022-12-29T01:49:19.424Z,77.86
2022-12-29T01:54:51.562Z,77.44
2022-12-29T02:00:14.441Z,78.07
2022-12-29T02:05:58.833Z,77.05
2022-12-29T02:11:20.872Z,77.75
2022-12-29T02:17:20.188Z,77.23
2022-12-29T02:22:44.989Z,78.24
2022-12-29T02:28:35.158Z,78.33
2022-12-29T02:34:17.555Z,79.67
2022-12-29T02:39:49.345Z,80.44
2022-12-29T02:45:16.609Z,80.82
2022-12-29T02:50:53.913Z,81.79
2022-12-29T02:56:15.749Z,82.09
2022-12-29T03:02:02.186Z,82.94
2022-12-29T03:07:29.024Z,84.04
2022-12-29T03:12:57.377Z,86.23
2022-12-29T03:18:26.102Z,86.83
2022-12-29T03:23:50.389Z,87.90
2022-12-29T03:29:13.948Z,89.39
2022-12-29T03:34:38.135Z,91.00
2022-12-29T03:40:00.084Z,92.23
2022-12-29T03:45:21.938Z,93.74
2022-12-29T03:50:43.773Z,95.28
2022-12-29T03:56:05.813Z,98.52
2022-12-29T04:01:27.707Z,98.30
2022-12-29T04:06:49.592Z,96.99
2022-12-29T04:12:11.483Z,97.09
2022-12-29T04:17:33.370Z,96.69
2022-12-29T04:23:05.562Z,97.93
2022-12-29T04:28:27.623Z,98.46
2022-12-29T04:33:49.603Z,98.89
2022-12-29T04:39:11.575Z,99.84
2022-12-29T04:44:33.407Z,100.00
2022-12-29T04:49:56.660Z,100.00
2022-12-29T04:55:18.612Z,100.00
2022-12-29T05:00:40.433Z,99.98
2022-12-29T05:06:02.721Z,99.89
2022-12-29T05:11:24.533Z,99.20
2022-12-29T05:16:46.354Z,97.98
2022-12-29T05:22:08.206Z,97.09
2022-12-29T05:27:30.069Z,95.95
2022-12-29T05:32:52.069Z,94.53
2022-12-29T05:38:13.925Z,94.64
2022-12-29T05:43:36.334Z,93.69
2022-12-29T05:48:58.328Z,92.81
2022-12-29T05:54:20.240Z,93.09
2022-12-29T05:59:42.061Z,91.56
2022-12-29T06:05:04.147Z,90.64
2022-12-29T06:10:26.073Z,90.69
2022-12-29T06:15:50.416Z,89.11
2022-12-29T06:21:12.254Z,88.00
2022-12-29T06:26:34.122Z,87.83
2022-12-29T06:31:56.043Z,87.35
2022-12-29T06:37:17.880Z,86.48
2022-12-29T06:42:39.775Z,86.47
2022-12-29T06:48:01.603Z,86.60
2022-12-29T06:53:23.454Z,86.43
2022-12-29T06:58:45.335Z,86.05
2022-12-29T07:04:07.187Z,85.67
2022-12-29T07:09:29.019Z,84.32
2022-12-29T07:14:50.892Z,83.78
2022-12-29T07:20:12.720Z,83.19
2022-12-29T07:25:34.599Z,83.42
2022-12-29T07:30:56.433Z,82.21
2022-12-29T07:36:18.397Z,82.87
2022-12-29T07:41:40.207Z,81.52
2022-12-29T07:47:02.416Z,81.61
2022-12-29T07:52:24.340Z,80.75
2022-12-29T07:57:46.297Z,79.81
2022-12-29T08:03:08.156Z,78.68
2022-12-29T08:08:29.967Z,78.66
2022-12-29T08:13:52.791Z,78.29
2022-12-29T08:19:15.083Z,77.67
2022-12-29T08:24:36.945Z,75.88
2022-12-29T08:29:58.776Z,74.49
2022-12-29T08:35:20.650Z,73.17
2022-12-29T08:40:42.682Z,72.98
2022-12-29T08:46:04.668Z,71.54
2022-12-29T08:51:26.599Z,71.25
2022-12-29T08:56:48.410Z,70.83
2022-12-29T09:02:12.710Z,69.43
2022-12-29T09:07:34.902Z,69.39
2022-12-29T09:12:56.918Z,68.77
2022-12-29T09:18:21.398Z,68.92
2022-12-29T09:23:43.689Z,68.11
2022-12-29T09:29:05.580Z,68.28
2022-12-29T09:34:27.443Z,67.60
2022-12-29T09:39:54.305Z,67.69
2022-12-29T09:45:57.091Z,65.94
2022-12-29T09:51:24.606Z,67.35
2022-12-29T09:56:48.339Z,66.95
2022-12-29T10:02:31.080Z,65.65
2022-12-29T10:08:17.777Z,65.79
2022-12-29T10:13:51.782Z,65.80
2022-12-29T10:19:32.945Z,66.47
2022-12-29T10:24:56.424Z,66.98
2022-12-29T10:30:19.262Z,66.93
2022-12-29T10:35:42.465Z,66.75
2022-12-29T10:41:14.943Z,66.58
2022-12-29T10:46:38.430Z,65.88
2022-12-29T10:52:03.989Z,66.05
2022-12-29T10:57:33.389Z,65.13
2022-12-29T11:03:16.493Z,64.86
2022-12-29T11:08:46.095Z,65.80
2022-12-29T11:14:19.087Z,65.64
2022-12-29T11:19:41.378Z,65.59
2022-12-29T11:25:13.197Z,64.24
2022-12-29T11:30:35.059Z,64.95
2022-12-29T11:36:13.145Z,63.41
2022-12-29T11:41:34.984Z,64.74
2022-12-29T11:46:56.839Z,64.24
2022-12-29T11:52:23.536Z,64.00
2022-12-29T11:57:45.951Z,63.84
2022-12-29T12:03:24.274Z,63.50
2022-12-29T12:08:58.865Z,63.75
2022-12-29T12:14:26.729Z,63.88
2022-12-29T12:20:23.739Z,63.75
2022-12-29T12:25:58.596Z,64.07
2022-12-29T12:31:44.337Z,64.15
2022-12-29T12:37:19.881Z,63.98
2022-12-29T12:43:05.009Z,63.78
2022-12-29T12:48:59.994Z,63.08
2022-12-29T12:54:59.684Z,64.13
2022-12-29T13:00:22.471Z,64.05
2022-12-29T13:05:56.393Z,63.78
2022-12-29T13:11:43.113Z,63.83
2022-12-29T13:17:15.474Z,63.83
2022-12-29T13:23:05.605Z,64.00
2022-12-29T13:28:42.217Z,64.48
2022-12-29T13:34:15.596Z,64.42
2022-12-29T13:39:46.901Z,64.14
2022-12-29T13:45:17.457Z,64.62
2022-12-29T13:50:41.270Z,64.83
2022-12-29T13:56:13.730Z,64.40
2022-12-29T14:01:40.596Z,64.45
2022-12-29T14:07:15.934Z,65.02
2022-12-29T14:12:44.164Z,64.78
2022-12-29T14:18:27.585Z,65.11
2022-12-29T14:23:51.514Z,64.69
2022-12-29T14:29:17.892Z,64.76
2022-12-29T14:34:40.156Z,64.95
2022-12-29T14:45:31.151Z,65.24
2022-12-29T14:50:53.097Z,64.99
2022-12-29T14:56:40.806Z,64.58
2022-12-29T15:02:18.579Z,64.87
2022-12-29T15:07:41.666Z,65.55
2022-12-29T15:13:06.528Z,64.98
2022-12-29T15:18:33.941Z,65.65
2022-12-29T15:23:55.996Z,66.40
2022-12-29T15:29:41.361Z,65.85
2022-12-29T15:35:32.660Z,65.60
2022-12-29T15:40:57.713Z,66.89
2022-12-29T15:46:19.971Z,67.28
2022-12-29T15:51:42.090Z,66.80
2022-12-29T15:57:04.920Z,67.66
2022-12-29T16:02:27.737Z,68.14
2022-12-29T16:07:56.127Z,68.32
2022-12-29T16:13:36.869Z,68.93
2022-12-29T16:19:21.468Z,69.17
2022-12-29T16:24:43.436Z,69.73
2022-12-29T16:30:17.147Z,70.01
2022-12-29T16:35:47.288Z,69.73
2022-12-29T16:41:09.181Z,70.85
2022-12-29T16:46:31.689Z,70.21
2022-12-29T16:51:55.441Z,71.18
2022-12-29T16:57:32.512Z,71.20
2022-12-29T17:02:59.582Z,71.42
2022-12-29T17:08:22.528Z,71.10
2022-12-29T17:13:44.457Z,72.09
2022-12-29T17:19:08.573Z,71.71
2022-12-29T17:24:30.476Z,71.95
2022-12-29T17:29:55.789Z,71.81
2022-12-29T17:35:19.889Z,71.49
2022-12-29T17:40:42.114Z,72.17
2022-12-29T17:46:06.931Z,71.62
2022-12-29T17:51:28.895Z,71.90
2022-12-29T17:56:51.312Z,71.68
2022-12-29T18:02:31.915Z,71.48
2022-12-29T18:07:55.870Z,71.89
2022-12-29T18:13:30.291Z,71.42
2022-12-29T18:18:57.845Z,71.86
2022-12-29T18:24:19.742Z,71.79
2022-12-29T18:29:42.162Z,72.53
2022-12-29T18:35:04.323Z,72.97
2022-12-29T18:40:26.173Z,73.07
2022-12-29T18:45:48.348Z,73.16
2022-12-29T18:51:24.430Z,72.96
2022-12-29T18:56:46.242Z,73.65
2022-12-29T19:02:15.733Z,73.37
2022-12-29T19:07:37.689Z,72.98
2022-12-29T19:12:59.676Z,73.26
2022-12-29T19:24:05.682Z,73.69
2022-12-29T19:29:27.530Z,73.25
2022-12-29T19:34:49.450Z,73.70
2022-12-29T19:40:14.626Z,74.02
2022-12-29T19:45:39.089Z,74.35
2022-12-29T19:51:09.955Z,74.50
2022-12-29T19:56:31.788Z,74.63
2022-12-29T20:01:53.755Z,74.94
2022-12-29T20:07:17.790Z,74.04
2022-12-29T20:12:39.846Z,74.98
2022-12-29T20:18:13.242Z,74.20
2022-12-29T20:23:38.401Z,73.47
2022-12-29T20:29:00.264Z,74.50
2022-12-29T20:34:22.126Z,73.95
2022-12-29T20:39:44.113Z,74.34
2022-12-29T20:45:06.310Z,74.24
2022-12-29T20:50:28.136Z,74.45
2022-12-29T20:55:50.075Z,74.17
2022-12-29T21:01:15.608Z,74.29
2022-12-29T21:06:37.772Z,74.77
2022-12-29T21:11:59.583Z,75.41
2022-12-29T21:17:21.394Z,74.45
2022-12-29T21:22:43.244Z,75.03
2022-12-29T21:28:09.925Z,74.14
2022-12-29T21:33:31.856Z,74.90
2022-12-29T21:38:54.330Z,74.42
2022-12-29T21:44:16.178Z,74.43
2022-12-29T21:49:38.092Z,74.01
2022-12-29T21:54:59.914Z,74.04
2022-12-29T22:00:21.904Z,73.82
2022-12-29T22:05:44.116Z,73.32
2022-12-29T22:11:08.453Z,73.90
2022-12-29T22:16:30.374Z,73.29
2022-12-29T22:21:52.327Z,73.37
2022-12-29T22:27:14.191Z,73.38
2022-12-29T22:32:36.138Z,73.55
2022-12-29T22:37:57.995Z,73.71
2022-12-29T22:43:19.915Z,73.35
2022-12-29T22:48:41.853Z,73.03
2022-12-29T22:54:03.793Z,73.26
2022-12-29T22:59:25.676Z,73.06
2022-12-29T23:05:03.041Z,73.44
2022-12-29T23:10:26.179Z,73.07
2022-12-29T23:15:48.374Z,72.92
2022-12-29T23:21:11.027Z,73.54
2022-12-29T23:26:42.590Z,73.58
2022-12-29T23:32:04.471Z,73.68
2022-12-29T23:37:26.522Z,73.57
2022-12-29T23:42:48.379Z,73.57
2022-12-29T23:48:10.373Z,73.62
2022-12-29T23:53:33.858Z,74.09
2022-12-29T23:58:55.808Z,73.96
